sensor_id;sensor_type;location;lat;lon;timestamp;temperature;humidity
5605;DHT22;9297;47.258;11.362;2023-09-19T00:01:37;17.00;99.90
5605;DHT22;9297;47.258;11.362;2023-09-19T00:04:06;17.00;99.90
5605;DHT22;9297;47.258;11.362;2023-09-19T00:06:33;17.00;99.90
5605;DHT22;9297;47.258;11.362;2023-09-19T00:09:00;17.00;99.90
5605;DHT22;9297;47.258;11.362;2023-09-19T00:11:27;17.00;99.90
5605;DHT22;9297;47.258;11.362;2023-09-19T00:13:55;17.00;99.90
5605;DHT22;9297;47.258;11.362;2023-09-19T00:16:22;17.00;99.90
5605;DHT22;9297;47.258;11.362;2023-09-19T00:18:50;17.00;99.90
5605;DHT22;9297;47.258;11.362;2023-09-19T00:21:18;16.90;99.90
5605;DHT22;9297;47.258;11.362;2023-09-19T00:23:46;17.00;99.90
5605;DHT22;9297;47.258;11.362;2023-09-19T00:26:13;17.10;99.90
5605;DHT22;9297;47.258;11.362;2023-09-19T00:28:40;17.00;99.90
5605;DHT22;9297;47.258;11.362;2023-09-19T00:31:08;17.00;99.90
5605;DHT22;9297;47.258;11.362;2023-09-19T00:33:35;17.00;99.90
5605;DHT22;9297;47.258;11.362;2023-09-19T00:36:02;17.00;99.90
5605;DHT22;9297;47.258;11.362;2023-09-19T00:38:31;17.00;99.90
5605;DHT22;9297;47.258;11.362;2023-09-19T00:40:58;16.90;99.90
5605;DHT22;9297;47.258;11.362;2023-09-19T00:43:27;17.00;99.90
5605;DHT22;9297;47.258;11.362;2023-09-19T00:45:56;17.00;99.90
5605;DHT22;9297;47.258;11.362;2023-09-19T00:48:24;17.00;99.90
5605;DHT22;9297;47.258;11.362;2023-09-19T00:50:53;17.00;99.90
5605;DHT22;9297;47.258;11.362;2023-09-19T00:53:24;17.00;99.90
5605;DHT22;9297;47.258;11.362;2023-09-19T00:55:53;17.00;99.90
5605;DHT22;9297;47.258;11.362;2023-09-19T00:58:20;16.90;99.90
5605;DHT22;9297;47.258;11.362;2023-09-19T01:00:48;16.90;99.90
5605;DHT22;9297;47.258;11.362;2023-09-19T01:03:16;16.90;99.90
5605;DHT22;9297;47.258;11.362;2023-09-19T01:05:44;16.90;99.90
5605;DHT22;9297;47.258;11.362;2023-09-19T01:08:11;16.90;99.90
5605;DHT22;9297;47.258;11.362;2023-09-19T01:10:45;16.90;99.90
5605;DHT22;9297;47.258;11.362;2023-09-19T01:13:21;16.90;99.90
5605;DHT22;9297;47.258;11.362;2023-09-19T01:15:57;16.90;99.90
5605;DHT22;9297;47.258;11.362;2023-09-19T01:18:34;17.00;99.90
5605;DHT22;9297;47.258;11.362;2023-09-19T01:21:07;17.00;99.90
5605;DHT22;9297;47.258;11.362;2023-09-19T01:23:56;17.00;99.90
5605;DHT22;9297;47.258;11.362;2023-09-19T01:26:48;16.90;99.90
5605;DHT22;9297;47.258;11.362;2023-09-19T01:29:31;17.00;99.90
5605;DHT22;9297;47.258;11.362;2023-09-19T01:32:03;17.00;99.90
5605;DHT22;9297;47.258;11.362;2023-09-19T01:34:44;17.00;99.90
5605;DHT22;9297;47.258;11.362;2023-09-19T01:37:11;17.00;99.90
5605;DHT22;9297;47.258;11.362;2023-09-19T01:39:38;17.00;99.90
5605;DHT22;9297;47.258;11.362;2023-09-19T01:42:10;17.00;99.90
5605;DHT22;9297;47.258;11.362;2023-09-19T01:44:48;17.00;99.90
5605;DHT22;9297;47.258;11.362;2023-09-19T01:47:26;17.00;99.90
5605;DHT22;9297;47.258;11.362;2023-09-19T01:49:59;17.00;99.90
5605;DHT22;9297;47.258;11.362;2023-09-19T01:52:31;17.00;99.90
5605;DHT22;9297;47.258;11.362;2023-09-19T01:55:07;17.00;99.90
5605;DHT22;9297;47.258;11.362;2023-09-19T01:57:40;16.90;99.90
5605;DHT22;9297;47.258;11.362;2023-09-19T02:00:10;16.90;99.90
5605;DHT22;9297;47.258;11.362;2023-09-19T02:02:40;16.90;99.90
5605;DHT22;9297;47.258;11.362;2023-09-19T02:05:10;16.90;99.90
5605;DHT22;9297;47.258;11.362;2023-09-19T02:07:38;16.90;99.90
5605;DHT22;9297;47.258;11.362;2023-09-19T02:10:06;16.90;99.90
5605;DHT22;9297;47.258;11.362;2023-09-19T02:12:33;16.80;99.90
5605;DHT22;9297;47.258;11.362;2023-09-19T02:15:01;16.80;99.90
5605;DHT22;9297;47.258;11.362;2023-09-19T02:17:28;16.90;99.90
5605;DHT22;9297;47.258;11.362;2023-09-19T02:19:56;16.90;99.90
5605;DHT22;9297;47.258;11.362;2023-09-19T02:22:23;16.80;99.90
5605;DHT22;9297;47.258;11.362;2023-09-19T02:24:50;16.80;99.90
5605;DHT22;9297;47.258;11.362;2023-09-19T02:27:17;16.90;99.90
5605;DHT22;9297;47.258;11.362;2023-09-19T02:29:45;16.90;99.90
5605;DHT22;9297;47.258;11.362;2023-09-19T02:32:12;16.90;99.90
5605;DHT22;9297;47.258;11.362;2023-09-19T02:34:39;16.80;99.90
5605;DHT22;9297;47.258;11.362;2023-09-19T02:37:08;16.70;99.90
5605;DHT22;9297;47.258;11.362;2023-09-19T02:39:35;16.80;99.90
5605;DHT22;9297;47.258;11.362;2023-09-19T02:42:02;16.80;99.90
5605;DHT22;9297;47.258;11.362;2023-09-19T02:44:30;16.80;99.90
5605;DHT22;9297;47.258;11.362;2023-09-19T02:46:57;16.80;99.90
5605;DHT22;9297;47.258;11.362;2023-09-19T02:49:24;16.80;99.90
5605;DHT22;9297;47.258;11.362;2023-09-19T02:52:02;16.80;99.90
5605;DHT22;9297;47.258;11.362;2023-09-19T02:54:30;16.80;99.90
5605;DHT22;9297;47.258;11.362;2023-09-19T02:56:57;16.70;99.90
5605;DHT22;9297;47.258;11.362;2023-09-19T02:59:24;16.70;99.90
5605;DHT22;9297;47.258;11.362;2023-09-19T03:01:52;16.70;99.90
5605;DHT22;9297;47.258;11.362;2023-09-19T03:04:19;16.70;99.90
5605;DHT22;9297;47.258;11.362;2023-09-19T03:06:46;16.70;99.90
5605;DHT22;9297;47.258;11.362;2023-09-19T03:09:14;16.80;99.90
5605;DHT22;9297;47.258;11.362;2023-09-19T03:11:42;16.80;99.90
5605;DHT22;9297;47.258;11.362;2023-09-19T03:14:10;16.70;99.90
5605;DHT22;9297;47.258;11.362;2023-09-19T03:16:37;16.80;99.90
5605;DHT22;9297;47.258;11.362;2023-09-19T03:19:04;16.80;99.90
5605;DHT22;9297;47.258;11.362;2023-09-19T03:21:31;16.80;99.90
5605;DHT22;9297;47.258;11.362;2023-09-19T03:23:58;16.80;99.90
5605;DHT22;9297;47.258;11.362;2023-09-19T03:26:25;16.80;99.90
5605;DHT22;9297;47.258;11.362;2023-09-19T03:28:53;16.80;99.90
5605;DHT22;9297;47.258;11.362;2023-09-19T03:31:21;16.80;99.90
5605;DHT22;9297;47.258;11.362;2023-09-19T03:33:48;16.70;99.90
5605;DHT22;9297;47.258;11.362;2023-09-19T03:36:15;16.70;99.90
5605;DHT22;9297;47.258;11.362;2023-09-19T03:38:42;16.70;99.90
5605;DHT22;9297;47.258;11.362;2023-09-19T03:41:10;16.70;99.90
5605;DHT22;9297;47.258;11.362;2023-09-19T03:43:37;16.70;99.90
5605;DHT22;9297;47.258;11.362;2023-09-19T03:46:05;16.70;99.90
5605;DHT22;9297;47.258;11.362;2023-09-19T03:48:32;16.70;99.90
5605;DHT22;9297;47.258;11.362;2023-09-19T03:50:59;16.70;99.90
5605;DHT22;9297;47.258;11.362;2023-09-19T03:53:27;16.60;99.90
5605;DHT22;9297;47.258;11.362;2023-09-19T03:55:54;16.70;99.90
5605;DHT22;9297;47.258;11.362;2023-09-19T03:58:21;16.80;99.90
5605;DHT22;9297;47.258;11.362;2023-09-19T04:00:48;16.70;99.90
5605;DHT22;9297;47.258;11.362;2023-09-19T04:03:16;16.70;99.90
5605;DHT22;9297;47.258;11.362;2023-09-19T04:05:44;16.70;99.90
5605;DHT22;9297;47.258;11.362;2023-09-19T04:08:11;16.70;99.90
5605;DHT22;9297;47.258;11.362;2023-09-19T04:10:38;16.80;99.90
5605;DHT22;9297;47.258;11.362;2023-09-19T04:13:05;16.80;99.90
5605;DHT22;9297;47.258;11.362;2023-09-19T04:15:32;16.80;99.90
5605;DHT22;9297;47.258;11.362;2023-09-19T04:17:59;16.80;99.90
5605;DHT22;9297;47.258;11.362;2023-09-19T04:20:28;16.80;99.90
5605;DHT22;9297;47.258;11.362;2023-09-19T04:22:55;16.80;99.90
5605;DHT22;9297;47.258;11.362;2023-09-19T04:25:22;16.80;99.90
5605;DHT22;9297;47.258;11.362;2023-09-19T04:27:49;16.80;99.90
5605;DHT22;9297;47.258;11.362;2023-09-19T04:30:16;16.80;99.90
5605;DHT22;9297;47.258;11.362;2023-09-19T04:32:43;16.70;99.90
5605;DHT22;9297;47.258;11.362;2023-09-19T04:35:11;16.70;99.90
5605;DHT22;9297;47.258;11.362;2023-09-19T04:37:40;16.70;99.90
5605;DHT22;9297;47.258;11.362;2023-09-19T04:40:08;16.70;99.90
5605;DHT22;9297;47.258;11.362;2023-09-19T04:42:36;16.80;99.90
5605;DHT22;9297;47.258;11.362;2023-09-19T04:45:03;17.20;99.90
5605;DHT22;9297;47.258;11.362;2023-09-19T04:47:31;17.60;99.90
5605;DHT22;9297;47.258;11.362;2023-09-19T04:49:58;17.70;99.90
5605;DHT22;9297;47.258;11.362;2023-09-19T04:52:25;17.50;99.90
5605;DHT22;9297;47.258;11.362;2023-09-19T04:54:53;17.50;99.90
5605;DHT22;9297;47.258;11.362;2023-09-19T04:57:20;17.40;99.90
5605;DHT22;9297;47.258;11.362;2023-09-19T04:59:48;17.50;99.90
5605;DHT22;9297;47.258;11.362;2023-09-19T05:02:14;17.60;99.90
5605;DHT22;9297;47.258;11.362;2023-09-19T05:04:45;17.50;99.90
5605;DHT22;9297;47.258;11.362;2023-09-19T05:07:12;17.40;99.90
5605;DHT22;9297;47.258;11.362;2023-09-19T05:09:42;17.30;99.90
5605;DHT22;9297;47.258;11.362;2023-09-19T05:12:10;17.20;99.90
5605;DHT22;9297;47.258;11.362;2023-09-19T05:14:37;17.10;99.90
5605;DHT22;9297;47.258;11.362;2023-09-19T05:17:04;17.00;99.90
5605;DHT22;9297;47.258;11.362;2023-09-19T05:19:32;17.00;99.90
5605;DHT22;9297;47.258;11.362;2023-09-19T05:21:59;17.00;99.90
5605;DHT22;9297;47.258;11.362;2023-09-19T05:24:26;16.90;99.90
5605;DHT22;9297;47.258;11.362;2023-09-19T05:26:53;16.90;99.90
5605;DHT22;9297;47.258;11.362;2023-09-19T05:29:22;16.90;99.90
5605;DHT22;9297;47.258;11.362;2023-09-19T05:31:49;16.80;99.90
5605;DHT22;9297;47.258;11.362;2023-09-19T05:34:16;16.90;99.90
5605;DHT22;9297;47.258;11.362;2023-09-19T05:36:43;16.80;99.90
5605;DHT22;9297;47.258;11.362;2023-09-19T05:39:10;16.80;99.90
5605;DHT22;9297;47.258;11.362;2023-09-19T05:41:37;16.70;99.90
5605;DHT22;9297;47.258;11.362;2023-09-19T05:44:05;16.60;99.90
5605;DHT22;9297;47.258;11.362;2023-09-19T05:46:34;16.60;99.90
5605;DHT22;9297;47.258;11.362;2023-09-19T05:49:01;16.70;99.90
5605;DHT22;9297;47.258;11.362;2023-09-19T05:51:28;16.70;99.90
5605;DHT22;9297;47.258;11.362;2023-09-19T05:53:55;16.70;99.90
5605;DHT22;9297;47.258;11.362;2023-09-19T05:56:22;16.80;99.90
5605;DHT22;9297;47.258;11.362;2023-09-19T05:58:49;16.80;99.90
5605;DHT22;9297;47.258;11.362;2023-09-19T06:01:16;16.80;99.90
5605;DHT22;9297;47.258;11.362;2023-09-19T06:03:44;16.80;99.90
5605;DHT22;9297;47.258;11.362;2023-09-19T06:06:12;16.90;99.90
5605;DHT22;9297;47.258;11.362;2023-09-19T06:08:39;17.00;99.90
5605;DHT22;9297;47.258;11.362;2023-09-19T06:11:06;17.00;99.90
5605;DHT22;9297;47.258;11.362;2023-09-19T06:13:33;16.90;99.90
5605;DHT22;9297;47.258;11.362;2023-09-19T06:16:00;16.90;99.90
5605;DHT22;9297;47.258;11.362;2023-09-19T06:18:27;17.00;99.90
5605;DHT22;9297;47.258;11.362;2023-09-19T06:20:56;17.00;99.90
5605;DHT22;9297;47.258;11.362;2023-09-19T06:23:24;17.00;99.90
5605;DHT22;9297;47.258;11.362;2023-09-19T06:25:51;17.00;99.90
5605;DHT22;9297;47.258;11.362;2023-09-19T06:28:18;17.00;99.90
5605;DHT22;9297;47.258;11.362;2023-09-19T06:30:45;17.10;99.90
5605;DHT22;9297;47.258;11.362;2023-09-19T06:33:12;17.20;99.90
5605;DHT22;9297;47.258;11.362;2023-09-19T06:35:42;17.20;99.90
5605;DHT22;9297;47.258;11.362;2023-09-19T06:38:11;17.30;99.90
5605;DHT22;9297;47.258;11.362;2023-09-19T06:40:38;17.30;99.90
5605;DHT22;9297;47.258;11.362;2023-09-19T06:43:05;18.00;99.90
5605;DHT22;9297;47.258;11.362;2023-09-19T06:45:32;18.00;99.90
5605;DHT22;9297;47.258;11.362;2023-09-19T06:47:59;17.80;99.90
5605;DHT22;9297;47.258;11.362;2023-09-19T06:50:27;17.80;99.90
5605;DHT22;9297;47.258;11.362;2023-09-19T06:52:54;17.70;99.90
5605;DHT22;9297;47.258;11.362;2023-09-19T06:55:23;17.80;99.90
5605;DHT22;9297;47.258;11.362;2023-09-19T06:57:51;17.70;99.90
5605;DHT22;9297;47.258;11.362;2023-09-19T07:00:18;17.60;99.90
5605;DHT22;9297;47.258;11.362;2023-09-19T07:02:54;17.60;99.90
5605;DHT22;9297;47.258;11.362;2023-09-19T07:05:21;17.50;99.90
5605;DHT22;9297;47.258;11.362;2023-09-19T07:07:48;17.40;99.90
5605;DHT22;9297;47.258;11.362;2023-09-19T07:10:15;17.50;99.90
5605;DHT22;9297;47.258;11.362;2023-09-19T07:12:44;17.50;99.90
5605;DHT22;9297;47.258;11.362;2023-09-19T07:15:11;17.60;99.90
5605;DHT22;9297;47.258;11.362;2023-09-19T07:17:38;17.60;99.90
5605;DHT22;9297;47.258;11.362;2023-09-19T07:20:06;17.60;99.90
5605;DHT22;9297;47.258;11.362;2023-09-19T07:22:33;17.60;99.90
5605;DHT22;9297;47.258;11.362;2023-09-19T07:25:01;17.80;99.90
5605;DHT22;9297;47.258;11.362;2023-09-19T07:27:28;17.80;99.90
5605;DHT22;9297;47.258;11.362;2023-09-19T07:29:56;17.80;99.90
5605;DHT22;9297;47.258;11.362;2023-09-19T07:32:23;17.90;99.90
5605;DHT22;9297;47.258;11.362;2023-09-19T07:34:50;17.80;99.90
5605;DHT22;9297;47.258;11.362;2023-09-19T07:37:18;17.60;99.90
5605;DHT22;9297;47.258;11.362;2023-09-19T07:39:45;17.70;99.90
5605;DHT22;9297;47.258;11.362;2023-09-19T07:42:12;17.70;99.90
5605;DHT22;9297;47.258;11.362;2023-09-19T07:44:39;17.80;99.90
5605;DHT22;9297;47.258;11.362;2023-09-19T07:47:08;17.90;99.90
5605;DHT22;9297;47.258;11.362;2023-09-19T07:49:37;18.00;99.90
5605;DHT22;9297;47.258;11.362;2023-09-19T07:52:04;18.20;99.90
5605;DHT22;9297;47.258;11.362;2023-09-19T07:54:31;18.10;99.90
5605;DHT22;9297;47.258;11.362;2023-09-19T07:56:58;18.20;99.90
5605;DHT22;9297;47.258;11.362;2023-09-19T07:59:26;18.30;99.90
5605;DHT22;9297;47.258;11.362;2023-09-19T08:01:53;18.40;99.90
5605;DHT22;9297;47.258;11.362;2023-09-19T08:04:21;18.40;99.90
5605;DHT22;9297;47.258;11.362;2023-09-19T08:06:49;18.40;99.90
5605;DHT22;9297;47.258;11.362;2023-09-19T08:09:16;18.30;99.90
5605;DHT22;9297;47.258;11.362;2023-09-19T08:11:43;18.40;99.90
5605;DHT22;9297;47.258;11.362;2023-09-19T08:14:10;18.40;99.90
5605;DHT22;9297;47.258;11.362;2023-09-19T08:16:37;18.40;99.90
5605;DHT22;9297;47.258;11.362;2023-09-19T08:19:04;18.40;99.90
5605;DHT22;9297;47.258;11.362;2023-09-19T08:21:33;18.30;99.90
5605;DHT22;9297;47.258;11.362;2023-09-19T08:24:00;18.30;99.90
5605;DHT22;9297;47.258;11.362;2023-09-19T08:26:28;18.30;99.90
5605;DHT22;9297;47.258;11.362;2023-09-19T08:28:55;18.40;99.90
5605;DHT22;9297;47.258;11.362;2023-09-19T08:31:22;18.30;99.90
5605;DHT22;9297;47.258;11.362;2023-09-19T08:33:50;18.30;99.90
5605;DHT22;9297;47.258;11.362;2023-09-19T08:36:17;18.30;99.90
5605;DHT22;9297;47.258;11.362;2023-09-19T08:38:46;18.20;99.90
5605;DHT22;9297;47.258;11.362;2023-09-19T08:41:13;18.30;99.90
5605;DHT22;9297;47.258;11.362;2023-09-19T08:43:40;18.30;99.90
5605;DHT22;9297;47.258;11.362;2023-09-19T08:46:11;18.30;99.90
5605;DHT22;9297;47.258;11.362;2023-09-19T08:48:42;18.20;99.90
5605;DHT22;9297;47.258;11.362;2023-09-19T08:51:18;18.20;99.90
5605;DHT22;9297;47.258;11.362;2023-09-19T08:53:51;18.30;99.90
5605;DHT22;9297;47.258;11.362;2023-09-19T08:56:19;18.40;99.90
5605;DHT22;9297;47.258;11.362;2023-09-19T08:58:50;18.40;99.90
5605;DHT22;9297;47.258;11.362;2023-09-19T09:01:17;18.40;99.90
5605;DHT22;9297;47.258;11.362;2023-09-19T09:03:46;18.40;99.90
5605;DHT22;9297;47.258;11.362;2023-09-19T09:06:16;18.50;99.90
5605;DHT22;9297;47.258;11.362;2023-09-19T09:08:44;18.70;99.90
5605;DHT22;9297;47.258;11.362;2023-09-19T09:11:15;19.00;98.30
5605;DHT22;9297;47.258;11.362;2023-09-19T09:13:43;19.00;96.10
5605;DHT22;9297;47.258;11.362;2023-09-19T09:16:10;19.20;98.10
5605;DHT22;9297;47.258;11.362;2023-09-19T09:18:38;19.40;96.60
5605;DHT22;9297;47.258;11.362;2023-09-19T09:21:05;19.60;96.70
5605;DHT22;9297;47.258;11.362;2023-09-19T09:23:32;19.70;93.70
5605;DHT22;9297;47.258;11.362;2023-09-19T09:26:00;19.60;91.70
5605;DHT22;9297;47.258;11.362;2023-09-19T09:28:29;19.90;92.80
5605;DHT22;9297;47.258;11.362;2023-09-19T09:30:57;19.90;91.00
5605;DHT22;9297;47.258;11.362;2023-09-19T09:33:24;19.70;92.00
5605;DHT22;9297;47.258;11.362;2023-09-19T09:35:53;19.90;90.60
5605;DHT22;9297;47.258;11.362;2023-09-19T09:38:21;20.40;90.30
5605;DHT22;9297;47.258;11.362;2023-09-19T09:40:49;20.40;89.30
5605;DHT22;9297;47.258;11.362;2023-09-19T09:43:32;20.30;85.00
5605;DHT22;9297;47.258;11.362;2023-09-19T09:46:13;20.30;85.80
5605;DHT22;9297;47.258;11.362;2023-09-19T09:48:40;20.30;86.30
5605;DHT22;9297;47.258;11.362;2023-09-19T09:51:07;20.40;85.40
5605;DHT22;9297;47.258;11.362;2023-09-19T09:53:34;20.40;83.20
5605;DHT22;9297;47.258;11.362;2023-09-19T09:56:02;20.50;82.60
5605;DHT22;9297;47.258;11.362;2023-09-19T09:58:31;20.70;83.60
5605;DHT22;9297;47.258;11.362;2023-09-19T10:00:59;21.00;81.30
5605;DHT22;9297;47.258;11.362;2023-09-19T10:03:34;21.10;82.10
5605;DHT22;9297;47.258;11.362;2023-09-19T10:06:01;21.20;80.70
5605;DHT22;9297;47.258;11.362;2023-09-19T10:08:28;21.40;80.00
5605;DHT22;9297;47.258;11.362;2023-09-19T10:10:55;21.30;80.40
5605;DHT22;9297;47.258;11.362;2023-09-19T10:13:25;21.40;81.20
5605;DHT22;9297;47.258;11.362;2023-09-19T10:15:59;21.40;78.10
5605;DHT22;9297;47.258;11.362;2023-09-19T10:18:32;21.60;80.00
5605;DHT22;9297;47.258;11.362;2023-09-19T10:21:03;21.90;80.00
5605;DHT22;9297;47.258;11.362;2023-09-19T10:23:31;22.10;76.70
5605;DHT22;9297;47.258;11.362;2023-09-19T10:25:59;22.10;76.30
5605;DHT22;9297;47.258;11.362;2023-09-19T10:28:28;21.70;73.20
5605;DHT22;9297;47.258;11.362;2023-09-19T10:30:59;21.60;73.40
5605;DHT22;9297;47.258;11.362;2023-09-19T10:33:35;21.60;72.80
5605;DHT22;9297;47.258;11.362;2023-09-19T10:36:05;21.70;74.90
5605;DHT22;9297;47.258;11.362;2023-09-19T10:38:33;21.70;74.90
5605;DHT22;9297;47.258;11.362;2023-09-19T10:41:01;21.60;77.10
5605;DHT22;9297;47.258;11.362;2023-09-19T10:43:30;21.90;74.50
5605;DHT22;9297;47.258;11.362;2023-09-19T10:46:06;21.90;73.50
5605;DHT22;9297;47.258;11.362;2023-09-19T10:48:33;22.00;72.60
5605;DHT22;9297;47.258;11.362;2023-09-19T10:51:04;22.00;73.80
5605;DHT22;9297;47.258;11.362;2023-09-19T10:53:41;22.30;73.10
5605;DHT22;9297;47.258;11.362;2023-09-19T10:56:10;22.50;76.30
5605;DHT22;9297;47.258;11.362;2023-09-19T10:58:37;22.40;72.20
5605;DHT22;9297;47.258;11.362;2023-09-19T11:01:06;22.30;70.40
5605;DHT22;9297;47.258;11.362;2023-09-19T11:03:33;22.10;72.10
5605;DHT22;9297;47.258;11.362;2023-09-19T11:06:05;21.90;72.80
5605;DHT22;9297;47.258;11.362;2023-09-19T11:08:51;21.70;75.00
5605;DHT22;9297;47.258;11.362;2023-09-19T11:11:39;21.80;75.20
5605;DHT22;9297;47.258;11.362;2023-09-19T11:14:28;21.60;75.50
5605;DHT22;9297;47.258;11.362;2023-09-19T11:20:22;21.90;84.20
5605;DHT22;9297;47.258;11.362;2023-09-19T11:23:17;21.80;80.10
5605;DHT22;9297;47.258;11.362;2023-09-19T11:25:44;22.50;78.70
5605;DHT22;9297;47.258;11.362;2023-09-19T11:28:34;22.80;73.30
5605;DHT22;9297;47.258;11.362;2023-09-19T11:37:04;23.90;68.30
5605;DHT22;9297;47.258;11.362;2023-09-19T11:40:05;24.10;65.80
5605;DHT22;9297;47.258;11.362;2023-09-19T11:42:42;24.10;66.60
5605;DHT22;9297;47.258;11.362;2023-09-19T11:48:10;24.30;64.10
5605;DHT22;9297;47.258;11.362;2023-09-19T11:50:37;23.50;65.10
5605;DHT22;9297;47.258;11.362;2023-09-19T11:53:06;23.40;67.50
5605;DHT22;9297;47.258;11.362;2023-09-19T11:55:34;23.30;70.60
5605;DHT22;9297;47.258;11.362;2023-09-19T11:58:01;23.80;71.90
5605;DHT22;9297;47.258;11.362;2023-09-19T12:00:28;24.40;69.90
5605;DHT22;9297;47.258;11.362;2023-09-19T12:03:00;24.80;67.10
5605;DHT22;9297;47.258;11.362;2023-09-19T12:05:31;24.80;66.50
5605;DHT22;9297;47.258;11.362;2023-09-19T12:07:58;24.90;66.80
5605;DHT22;9297;47.258;11.362;2023-09-19T12:10:27;25.30;63.90
5605;DHT22;9297;47.258;11.362;2023-09-19T12:12:54;25.50;63.50
5605;DHT22;9297;47.258;11.362;2023-09-19T12:15:25;25.80;60.40
5605;DHT22;9297;47.258;11.362;2023-09-19T12:17:52;26.00;62.60
5605;DHT22;9297;47.258;11.362;2023-09-19T12:20:24;26.20;62.20
5605;DHT22;9297;47.258;11.362;2023-09-19T12:22:51;26.30;60.40
5605;DHT22;9297;47.258;11.362;2023-09-19T12:25:18;26.10;59.00
5605;DHT22;9297;47.258;11.362;2023-09-19T12:27:47;25.60;56.90
5605;DHT22;9297;47.258;11.362;2023-09-19T12:30:15;25.50;59.90
5605;DHT22;9297;47.258;11.362;2023-09-19T12:32:53;25.50;60.40
5605;DHT22;9297;47.258;11.362;2023-09-19T12:35:27;25.80;60.10
5605;DHT22;9297;47.258;11.362;2023-09-19T12:37:54;25.30;58.80
5605;DHT22;9297;47.258;11.362;2023-09-19T12:40:22;25.60;59.00
5605;DHT22;9297;47.258;11.362;2023-09-19T12:42:50;26.00;58.80
5605;DHT22;9297;47.258;11.362;2023-09-19T12:45:19;26.40;58.40
5605;DHT22;9297;47.258;11.362;2023-09-19T12:51:04;26.50;56.80
5605;DHT22;9297;47.258;11.362;2023-09-19T12:53:32;25.70;51.20
5605;DHT22;9297;47.258;11.362;2023-09-19T12:56:00;26.10;53.50
5605;DHT22;9297;47.258;11.362;2023-09-19T12:58:28;26.80;54.40
5605;DHT22;9297;47.258;11.362;2023-09-19T13:00:55;27.20;50.20
5605;DHT22;9297;47.258;11.362;2023-09-19T13:03:26;27.20;48.40
5605;DHT22;9297;47.258;11.362;2023-09-19T13:05:55;26.90;48.40
5605;DHT22;9297;47.258;11.362;2023-09-19T13:08:26;27.50;52.20
5605;DHT22;9297;47.258;11.362;2023-09-19T13:11:02;26.90;48.40
5605;DHT22;9297;47.258;11.362;2023-09-19T13:13:30;27.00;48.70
5605;DHT22;9297;47.258;11.362;2023-09-19T13:15:57;26.60;49.60
5605;DHT22;9297;47.258;11.362;2023-09-19T13:18:24;26.60;49.80
5605;DHT22;9297;47.258;11.362;2023-09-19T13:21:05;26.90;51.20
5605;DHT22;9297;47.258;11.362;2023-09-19T13:23:32;26.80;50.60
5605;DHT22;9297;47.258;11.362;2023-09-19T13:25:59;26.50;51.40
5605;DHT22;9297;47.258;11.362;2023-09-19T13:28:26;26.70;48.80
5605;DHT22;9297;47.258;11.362;2023-09-19T13:30:58;27.50;48.90
5605;DHT22;9297;47.258;11.362;2023-09-19T13:33:25;27.80;48.70
5605;DHT22;9297;47.258;11.362;2023-09-19T13:35:52;27.90;46.00
5605;DHT22;9297;47.258;11.362;2023-09-19T13:38:19;28.20;45.80
5605;DHT22;9297;47.258;11.362;2023-09-19T13:40:46;28.40;46.50
5605;DHT22;9297;47.258;11.362;2023-09-19T13:43:13;27.70;45.60
5605;DHT22;9297;47.258;11.362;2023-09-19T13:45:40;27.50;48.30
5605;DHT22;9297;47.258;11.362;2023-09-19T13:48:08;27.80;47.10
5605;DHT22;9297;47.258;11.362;2023-09-19T13:50:36;27.90;46.60
5605;DHT22;9297;47.258;11.362;2023-09-19T13:53:07;28.00;47.50
5605;DHT22;9297;47.258;11.362;2023-09-19T13:55:37;28.10;48.60
5605;DHT22;9297;47.258;11.362;2023-09-19T13:58:04;28.00;50.80
5605;DHT22;9297;47.258;11.362;2023-09-19T14:00:32;26.90;51.00
5605;DHT22;9297;47.258;11.362;2023-09-19T14:03:00;27.70;50.30
5605;DHT22;9297;47.258;11.362;2023-09-19T14:05:28;27.80;50.40
5605;DHT22;9297;47.258;11.362;2023-09-19T14:07:55;27.60;51.40
5605;DHT22;9297;47.258;11.362;2023-09-19T14:10:22;28.00;51.10
5605;DHT22;9297;47.258;11.362;2023-09-19T14:12:49;28.10;47.80
5605;DHT22;9297;47.258;11.362;2023-09-19T14:15:16;27.90;50.50
5605;DHT22;9297;47.258;11.362;2023-09-19T14:17:44;27.60;51.00
5605;DHT22;9297;47.258;11.362;2023-09-19T14:20:11;26.90;52.80
5605;DHT22;9297;47.258;11.362;2023-09-19T14:22:39;26.70;53.20
5605;DHT22;9297;47.258;11.362;2023-09-19T14:25:07;26.60;53.50
5605;DHT22;9297;47.258;11.362;2023-09-19T14:27:34;26.30;53.80
5605;DHT22;9297;47.258;11.362;2023-09-19T14:30:01;26.00;54.90
5605;DHT22;9297;47.258;11.362;2023-09-19T14:32:28;25.50;55.70
5605;DHT22;9297;47.258;11.362;2023-09-19T14:34:55;25.40;55.50
5605;DHT22;9297;47.258;11.362;2023-09-19T14:37:22;25.20;57.00
5605;DHT22;9297;47.258;11.362;2023-09-19T14:39:50;25.20;57.80
5605;DHT22;9297;47.258;11.362;2023-09-19T14:42:17;25.10;57.00
5605;DHT22;9297;47.258;11.362;2023-09-19T14:44:45;25.20;57.40
5605;DHT22;9297;47.258;11.362;2023-09-19T14:47:12;25.20;56.80
5605;DHT22;9297;47.258;11.362;2023-09-19T14:49:39;25.60;56.70
5605;DHT22;9297;47.258;11.362;2023-09-19T14:52:09;25.80;54.20
5605;DHT22;9297;47.258;11.362;2023-09-19T14:54:44;25.40;56.00
5605;DHT22;9297;47.258;11.362;2023-09-19T14:57:15;25.00;54.30
5605;DHT22;9297;47.258;11.362;2023-09-19T14:59:42;24.90;55.80
5605;DHT22;9297;47.258;11.362;2023-09-19T15:02:18;24.90;56.50
5605;DHT22;9297;47.258;11.362;2023-09-19T15:04:51;24.70;57.00
5605;DHT22;9297;47.258;11.362;2023-09-19T15:07:18;24.50;56.80
5605;DHT22;9297;47.258;11.362;2023-09-19T15:09:57;24.60;57.80
5605;DHT22;9297;47.258;11.362;2023-09-19T15:12:28;24.50;57.00
5605;DHT22;9297;47.258;11.362;2023-09-19T15:14:55;24.50;55.60
5605;DHT22;9297;47.258;11.362;2023-09-19T15:17:24;24.40;55.40
5605;DHT22;9297;47.258;11.362;2023-09-19T15:19:51;24.40;55.10
5605;DHT22;9297;47.258;11.362;2023-09-19T15:22:22;24.50;55.80
5605;DHT22;9297;47.258;11.362;2023-09-19T15:24:51;24.40;54.60
5605;DHT22;9297;47.258;11.362;2023-09-19T15:27:18;24.40;54.60
5605;DHT22;9297;47.258;11.362;2023-09-19T15:29:46;24.10;55.70
5605;DHT22;9297;47.258;11.362;2023-09-19T15:32:13;24.10;56.20
5605;DHT22;9297;47.258;11.362;2023-09-19T15:34:41;24.20;56.70
5605;DHT22;9297;47.258;11.362;2023-09-19T15:37:08;23.90;56.70
5605;DHT22;9297;47.258;11.362;2023-09-19T15:39:35;23.70;58.00
5605;DHT22;9297;47.258;11.362;2023-09-19T15:42:08;23.70;58.70
5605;DHT22;9297;47.258;11.362;2023-09-19T15:44:37;23.70;60.90
5605;DHT22;9297;47.258;11.362;2023-09-19T15:47:06;23.50;61.60
5605;DHT22;9297;47.258;11.362;2023-09-19T15:49:33;23.50;62.90
5605;DHT22;9297;47.258;11.362;2023-09-19T15:52:00;23.30;61.90
5605;DHT22;9297;47.258;11.362;2023-09-19T15:54:27;23.40;62.10
5605;DHT22;9297;47.258;11.362;2023-09-19T15:56:54;23.20;61.50
5605;DHT22;9297;47.258;11.362;2023-09-19T15:59:21;23.10;61.70
5605;DHT22;9297;47.258;11.362;2023-09-19T16:01:48;23.20;62.70
5605;DHT22;9297;47.258;11.362;2023-09-19T16:04:16;23.10;62.80
5605;DHT22;9297;47.258;11.362;2023-09-19T16:06:43;23.10;62.70
5605;DHT22;9297;47.258;11.362;2023-09-19T16:09:10;23.00;63.70
5605;DHT22;9297;47.258;11.362;2023-09-19T16:11:37;22.90;64.00